Terminal Aerodrome Forecast
Issued by NWS

Home | Current Version | Previous Version | Text Only | Print | Product List | Glossary On
Versions: 1 2 3 4 5 6 7 8 9 10 11 12
000
FTUS46 KPDT 301100
TAFALW
TAF
KALW 301120Z 3012/3112 12006KT P6SM SCT150 SCT200
     FM301500 22006KT P6SM FEW150 FEW200
     FM302000 25007KT P6SM FEW250
     FM310300 17005KT P6SM FEW120=

USA.gov is the U.S. government's official web portal to all federal, state and local government web resources and services.